Time;durP1;ratioP1;P1;durP2;ratioP2;P2;SDS_P1;SDS_P2;PMS_P1;PMS_P2;Temp;Humidity;BMP_temperature;BMP_pressure;BME280_temperature;BME280_humidity;BME280_pressure;Samples;Min_cycle;Max_cycle;Signal;HPM_P1;HPM_P2
2022/05/22 00:00:22;;;;;;;3.20;2.90;;;;;;;19.66;51.97;97428.84;6039474;23;20211;-90
2022/05/22 00:02:49;;;;;;;3.23;2.93;;;;;;;21.28;51.74;97735.81;6017078;23;20571;-91
2022/05/22 00:05:17;;;;;;;3.60;2.70;;;;;;;20.02;52.16;97494.75;6015435;23;20211;-88
2022/05/22 00:07:44;;;;;;;3.77;3.23;;;;;;;21.03;52.04;97681.28;6016760;23;20204;-91
2022/05/22 00:10:14;;;;;;;3.30;3.00;;;;;;;19.78;52.14;97462.44;6038977;23;20223;-89
2022/05/22 00:12:40;;;;;;;4.33;3.10;;;;;;;19.39;51.97;97379.47;6038522;23;20534;-89
2022/05/22 00:15:08;;;;;;;3.10;2.80;;;;;;;20.79;52.10;97671.06;6039896;23;20286;-90
2022/05/22 00:17:37;;;;;;;3.60;3.30;;;;;;;21.25;52.08;97699.94;6017649;23;20218;-91
2022/05/22 00:20:05;;;;;;;3.97;3.57;;;;;;;20.36;52.05;97539.31;6039802;23;20247;-91
2022/05/22 00:22:31;;;;;;;4.00;3.13;;;;;;;14.56;51.83;96559.41;6016270;23;20208;-91
2022/05/22 00:24:58;;;;;;;3.73;3.23;;;;;;;17.89;51.93;97133.75;6015905;23;20602;-90
2022/05/22 00:27:25;;;;;;;4.67;3.10;;;;;;;20.52;51.71;97565.41;6017247;23;20184;-90
2022/05/22 00:29:51;;;;;;;3.87;2.90;;;;;;;20.14;51.75;97496.03;6040815;23;20188;-91
2022/05/22 00:32:18;;;;;;;4.80;3.33;;;;;;;19.45;51.97;97374.59;6040012;23;20212;-91
2022/05/22 00:34:45;;;;;;;3.93;2.93;;;;;;;20.41;52.06;97540.34;6038930;23;20231;-91
2022/05/22 00:37:12;;;;;;;4.33;3.40;;;;;;;19.52;51.86;97379.06;6039113;23;20191;-90
2022/05/22 00:39:38;;;;;;;3.53;2.93;;;;;;;18.18;51.71;97167.94;6039467;23;20336;-91
2022/05/22 00:42:18;;;;;;;5.57;3.37;;;;;;;20.76;52.00;97602.00;5991762;23;20688;-91
2022/05/22 00:44:45;;;;;;;4.77;2.80;;;;;;;21.22;51.96;97681.06;6015850;23;20232;-91
2022/05/22 00:47:11;;;;;;;3.57;3.17;;;;;;;20.46;52.05;97541.38;6038813;23;20211;-91
2022/05/22 00:49:41;;;;;;;3.90;3.20;;;;;;;20.37;52.08;97533.41;6016480;23;20180;-91
2022/05/22 00:52:15;;;;;;;3.70;3.40;;;;;;;20.54;52.02;97579.09;6016348;23;20218;-89
2022/05/22 00:55:02;;;;;;;4.03;3.70;;;;;;;21.22;51.78;97684.50;6016964;23;20258;-90
2022/05/22 00:57:31;;;;;;;4.33;3.50;;;;;;;21.22;51.92;97674.28;6015762;23;20168;-91
2022/05/22 01:00:02;;;;;;;4.53;3.63;;;;;;;21.12;52.14;97669.69;6062211;23;20207;-90
2022/05/22 01:03:26;;;;;;;4.97;3.80;;;;;;;19.17;51.78;97329.38;6016520;23;20219;-90
2022/05/22 01:05:16;;;;;;;3.70;3.30;;;;;;;20.05;51.87;97486.34;6041580;23;20758;-89
2022/05/22 01:07:42;;;;;;;6.13;3.70;;;;;;;19.80;51.73;97448.91;6038248;23;20263;-91
2022/05/22 01:10:09;;;;;;;5.80;3.30;;;;;;;17.43;51.70;97038.84;6063288;23;20191;-90
2022/05/22 01:12:36;;;;;;;4.17;3.77;;;;;;;16.53;52.22;96894.88;6038537;23;20263;-90
2022/05/22 01:15:02;;;;;;;4.17;3.70;;;;;;;19.80;51.73;97448.03;6014399;23;20208;-90
2022/05/22 01:17:29;;;;;;;4.03;3.60;;;;;;;17.88;51.75;97151.50;6038663;23;20648;-90
2022/05/22 01:19:57;;;;;;;4.00;3.60;;;;;;;17.52;51.73;97054.44;5991967;23;20232;-91
2022/05/22 01:22:26;;;;;;;4.30;3.90;;;;;;;20.78;51.88;97619.94;6014918;23;20235;-91
2022/05/22 01:24:53;;;;;;;4.67;3.40;;;;;;;19.20;51.70;97354.97;6038108;23;20747;-91
2022/05/22 01:27:20;;;;;;;6.10;3.97;;;;;;;20.23;51.61;97511.63;6014718;23;20177;-90
2022/05/22 01:29:47;;;;;;;4.97;3.90;;;;;;;20.53;51.83;97562.06;6016142;23;20171;-90
2022/05/22 01:32:17;;;;;;;4.00;3.30;;;;;;;18.38;51.74;97194.97;6016576;23;20585;-91
2022/05/22 01:34:43;;;;;;;4.23;3.83;;;;;;;20.71;51.60;97672.47;6063325;23;20244;-90
2022/05/22 01:37:10;;;;;;;4.17;3.73;;;;;;;19.95;51.68;97464.75;6039372;23;20184;-91
2022/05/22 01:39:36;;;;;;;4.17;3.53;;;;;;;19.91;51.73;97441.63;6039223;23;20251;-91
2022/05/22 01:42:03;;;;;;;4.50;3.50;;;;;;;20.11;51.78;97475.47;5992446;23;20164;-91
2022/05/22 01:44:30;;;;;;;4.17;3.77;;;;;;;19.39;51.38;97352.28;6038237;23;20607;-91
2022/05/22 01:46:57;;;;;;;4.60;3.37;;;;;;;20.99;51.56;97623.25;6015025;23;20184;-91
2022/05/22 01:49:23;;;;;;;4.93;3.60;;;;;;;20.76;51.55;97580.69;6015230;23;20247;-91
2022/05/22 01:51:50;;;;;;;5.00;3.83;;;;;;;21.21;51.79;97684.44;6016315;23;20212;-90
2022/05/22 01:54:16;;;;;;;3.80;3.40;;;;;;;20.79;51.96;97597.00;6038829;23;20211;-90
2022/05/22 01:56:43;;;;;;;3.97;3.57;;;;;;;20.92;51.62;97622.13;6039023;23;20169;-90
2022/05/22 01:59:10;;;;;;;4.23;3.83;;;;;;;20.77;51.71;97597.75;6015702;23;20223;-90
2022/05/22 02:01:36;;;;;;;3.97;3.60;;;;;;;17.33;51.70;97013.91;6038998;23;20273;-91
2022/05/22 02:04:04;;;;;;;6.50;3.60;;;;;;;20.28;51.65;97513.53;6014975;23;20200;-90
2022/05/22 02:06:31;;;;;;;5.23;3.80;;;;;;;20.11;51.53;97486.56;6014703;23;20207;-91
2022/05/22 02:08:57;;;;;;;4.33;3.43;;;;;;;20.43;51.69;97534.47;6038811;23;20203;-90
2022/05/22 02:11:24;;;;;;;3.93;3.23;;;;;;;20.16;51.87;97486.75;6038250;23;20214;-90
2022/05/22 02:13:50;;;;;;;5.70;3.90;;;;;;;21.16;51.76;97658.72;6015049;23;20206;-91
2022/05/22 02:16:17;;;;;;;4.10;3.70;;;;;;;19.21;51.94;97326.13;6037930;23;20212;-90
2022/05/22 02:18:44;;;;;;;4.67;3.33;;;;;;;21.12;51.43;97663.69;6038881;23;20715;-90
2022/05/22 02:21:10;;;;;;;3.97;3.53;;;;;;;20.41;51.23;97538.66;6013816;23;20200;-91
2022/05/22 02:23:37;;;;;;;5.67;3.80;;;;;;;20.15;51.09;97496.06;6015060;23;20228;-90
2022/05/22 02:26:06;;;;;;;4.30;3.20;;;;;;;21.16;50.87;97647.63;6015129;23;20184;-90
2022/05/22 02:28:33;;;;;;;4.10;3.43;;;;;;;16.91;50.94;96909.88;6016046;23;20215;-91
2022/05/22 02:31:00;;;;;;;4.17;3.77;;;;;;;20.34;50.86;97510.31;6038432;23;20181;-91
2022/05/22 02:33:27;;;;;;;3.90;3.60;;;;;;;20.35;50.79;97497.63;6014836;23;20208;-90
2022/05/22 02:35:54;;;;;;;7.70;4.00;;;;;;;17.20;50.72;96952.44;6063605;23;20164;-91
2022/05/22 02:38:20;;;;;;;3.90;3.40;;;;;;;20.33;50.18;97483.06;6014889;23;20207;-91
2022/05/22 02:40:47;;;;;;;5.97;3.67;;;;;;;18.83;51.08;97239.03;6038726;23;20201;-90
2022/05/22 02:43:14;;;;;;;4.00;3.60;;;;;;;20.48;50.68;97519.28;6015240;23;20222;-91
2022/05/22 02:45:40;;;;;;;4.13;3.73;;;;;;;20.89;50.84;97593.91;6014992;23;20184;-90
2022/05/22 02:48:08;;;;;;;3.40;3.10;;;;;;;20.42;50.61;97491.88;6014905;23;20219;-90
2022/05/22 02:50:34;;;;;;;4.40;3.63;;;;;;;18.56;50.56;97182.91;6014530;23;20219;-91
2022/05/22 02:53:01;;;;;;;3.73;3.40;;;;;;;19.93;50.90;97422.16;6038840;23;20191;-90
2022/05/22 02:55:27;;;;;;;6.37;3.50;;;;;;;17.31;50.95;96966.38;6037688;23;20695;-90
2022/05/22 02:57:54;;;;;;;3.40;3.10;;;;;;;20.66;51.15;97540.34;6015413;23;20219;-91
2022/05/22 03:00:26;;;;;;;6.57;3.17;;;;;;;20.32;51.12;97491.53;6038896;23;20200;-91
2022/05/22 03:02:53;;;;;;;4.50;3.20;;;;;;;19.34;50.98;97346.19;6039151;23;20164;-91
2022/05/22 03:05:20;;;;;;;3.97;3.20;;;;;;;20.64;50.99;97537.75;6016617;23;20211;-90
2022/05/22 03:07:46;;;;;;;3.60;3.17;;;;;;;20.65;51.10;97530.94;6065083;23;20227;-91
2022/05/22 03:10:14;;;;;;;4.10;3.27;;;;;;;20.83;50.79;97598.81;6040121;23;20180;-91
2022/05/22 03:12:40;;;;;;;3.63;3.33;;;;;;;20.13;50.25;97444.13;6017117;23;20549;-90
2022/05/22 03:15:08;;;;;;;3.90;3.33;;;;;;;19.75;50.38;97378.19;6040125;23;20200;-90
2022/05/22 03:17:35;;;;;;;3.50;3.20;;;;;;;19.69;50.36;97362.69;6016823;23;20203;-90
2022/05/22 03:20:03;;;;;;;5.63;3.23;;;;;;;20.93;50.12;97580.41;6017423;23;20207;-90
2022/05/22 03:22:29;;;;;;;3.43;3.13;;;;;;;21.12;50.52;97615.13;6016731;23;20205;-91
2022/05/22 03:24:56;;;;;;;4.60;3.17;;;;;;;20.66;50.40;97545.47;6065769;23;20267;-91
2022/05/22 03:27:22;;;;;;;3.87;3.30;;;;;;;20.96;50.13;97589.94;6017625;23;20219;-90
2022/05/22 03:29:49;;;;;;;3.27;2.97;;;;;;;20.63;50.41;97576.00;6041541;23;20212;-90
2022/05/22 03:32:16;;;;;;;5.37;3.50;;;;;;;18.35;50.13;97159.19;6040742;23;20741;-91
2022/05/22 03:34:42;;;;;;;3.53;3.23;;;;;;;19.31;50.10;97329.91;6038746;23;20223;-90
2022/05/22 03:37:09;;;;;;;3.40;3.00;;;;;;;20.84;50.13;97569.91;5993064;23;20577;-90
2022/05/22 03:39:36;;;;;;;4.20;3.43;;;;;;;18.87;50.05;97223.91;6040554;23;20220;-90
2022/05/22 03:42:03;;;;;;;3.37;3.07;;;;;;;20.43;50.23;97510.63;6016673;23;20545;-90
2022/05/22 03:44:29;;;;;;;3.27;2.97;;;;;;;20.41;50.13;97499.50;6016285;23;20731;-90
2022/05/22 03:46:56;;;;;;;4.50;3.40;;;;;;;17.75;50.26;97043.47;6039639;23;20174;-90
2022/05/22 03:49:22;;;;;;;4.40;2.97;;;;;;;17.43;50.06;96980.44;6016552;23;20260;-90
2022/05/22 03:51:49;;;;;;;3.60;2.90;;;;;;;20.33;50.09;97481.38;6039763;23;20181;-90
2022/05/22 03:54:16;;;;;;;3.83;3.07;;;;;;;17.01;50.01;96901.78;6016257;23;20596;-90
2022/05/22 03:56:42;;;;;;;3.33;3.03;;;;;;;20.41;50.07;97481.63;6039713;23;20196;-90
2022/05/22 03:59:11;;;;;;;3.10;2.80;;;;;;;16.94;49.88;96871.94;6017489;23;20177;-90
2022/05/22 04:01:38;;;;;;;4.30;3.33;;;;;;;20.32;49.99;97489.88;6016058;23;20196;-90
2022/05/22 04:04:05;;;;;;;3.40;3.10;;;;;;;20.35;49.77;97479.75;6038473;23;20204;-90
2022/05/22 04:06:31;;;;;;;4.50;3.03;;;;;;;20.82;50.05;97609.88;6014855;23;20239;-90
2022/05/22 04:08:58;;;;;;;3.10;2.90;;;;;;;20.74;49.80;97539.78;6038374;23;20176;-90
2022/05/22 04:11:25;;;;;;;6.57;3.33;;;;;;;19.10;49.98;97260.34;6039021;23;20180;-90
2022/05/22 04:14:05;;;;;;;3.93;3.20;;;;;;;17.96;50.19;97094.19;6064501;23;20743;-90
2022/05/22 04:16:34;;;;;;;4.23;3.07;;;;;;;12.89;50.05;96180.41;6019594;23;20639;-90
2022/05/22 04:19:01;;;;;;;4.27;3.70;;;;;;;17.33;50.20;96940.25;6037613;23;20183;-89
2022/05/22 04:21:27;;;;;;;3.53;3.23;;;;;;;19.93;50.78;97397.50;6038174;23;20575;-90
2022/05/22 04:26:53;;;;;;;3.30;3.00;;;;;;;13.62;50.54;96285.19;6022366;23;20176;-90
2022/05/22 04:29:33;;;;;;;5.17;3.07;;;;;;;14.75;50.54;96542.44;6040239;23;20168;-90
2022/05/22 04:32:07;;;;;;;3.23;2.93;;;;;;;14.79;51.20;96540.09;6016275;23;20161;-90
2022/05/22 04:34:34;;;;;;;3.30;3.00;;;;;;;17.24;50.86;96914.53;6014774;23;20204;-91
2022/05/22 04:37:01;;;;;;;3.30;3.00;;;;;;;14.73;51.11;96474.09;5991876;23;20172;-90
2022/05/22 04:39:33;;;;;;;3.37;3.00;;;;;;;19.00;51.32;97217.53;6039720;23;20256;-90
2022/05/22 04:42:00;;;;;;;3.40;3.10;;;;;;;20.31;51.41;97451.53;6040462;23;20195;-90
2022/05/22 04:44:27;;;;;;;3.27;2.97;;;;;;;13.42;51.27;96323.88;6015274;23;20563;-90
2022/05/22 04:46:53;;;;;;;4.37;3.10;;;;;;;17.68;51.60;97043.19;6004099;23;20629;-90
2022/05/22 04:49:20;;;;;;;3.90;3.50;;;;;;;21.13;51.74;97576.84;6031427;23;20187;-90
2022/05/22 04:51:47;;;;;;;5.33;4.83;;;;;;;19.55;51.16;97305.25;6008729;23;20187;-90
2022/05/22 04:54:13;;;;;;;4.83;3.63;;;;;;;20.89;51.32;97570.94;6007577;23;20240;-89
2022/05/22 04:56:40;;;;;;;3.50;3.20;;;;;;;20.41;51.32;97468.88;6033643;23;20226;-89
2022/05/22 04:59:06;;;;;;;5.00;3.47;;;;;;;18.31;51.78;97113.25;6032531;23;20259;-89
2022/05/22 05:01:33;;;;;;;6.37;3.50;;;;;;;20.49;51.85;97475.94;6032733;23;20271;-88
2022/05/22 05:04:00;;;;;;;5.60;3.30;;;;;;;20.06;51.67;97401.34;6031567;23;20251;-88
2022/05/22 05:06:30;;;;;;;4.57;3.60;;;;;;;15.38;51.87;96611.63;6031876;23;20239;-90
2022/05/22 05:08:56;;;;;;;4.67;3.33;;;;;;;17.46;51.73;96977.13;6008205;23;20700;-90
2022/05/22 05:11:23;;;;;;;4.43;3.33;;;;;;;19.67;51.76;97341.34;6009002;23;20652;-90
2022/05/22 05:13:50;;;;;;;7.40;3.60;;;;;;;20.35;52.04;97455.91;6008945;23;20210;-90
2022/05/22 05:16:16;;;;;;;3.53;3.17;;;;;;;17.48;51.85;96956.06;6008582;23;20239;-89
2022/05/22 05:18:43;;;;;;;3.70;3.40;;;;;;;20.87;52.24;97546.16;6008181;23;20215;-90
2022/05/22 05:21:11;;;;;;;3.60;3.30;;;;;;;20.89;52.25;97536.84;5985624;23;20560;-90
2022/05/22 05:23:38;;;;;;;3.70;3.20;;;;;;;17.35;52.17;96931.00;6008135;23;20204;-90
2022/05/22 05:26:05;;;;;;;3.10;2.90;;;;;;;20.42;52.29;97447.63;6031669;23;20212;-89
2022/05/22 05:28:31;;;;;;;3.40;3.10;;;;;;;20.66;52.26;97482.47;6032098;23;20180;-90
2022/05/22 05:30:58;;;;;;;3.47;2.93;;;;;;;19.21;52.55;97229.31;6009053;23;20238;-88
2022/05/22 06:12:58;;;;;;;3.50;3.20;;;;;;;16.66;53.40;96810.81;6110012;23;20286;-89
2022/05/22 06:15:26;;;;;;;5.27;3.80;;;;;;;17.90;53.34;97044.00;6033557;23;20264;-88
2022/05/22 06:17:56;;;;;;;5.13;4.60;;;;;;;15.71;53.64;96623.03;6053165;23;20507;-89
2022/05/22 06:20:23;;;;;;;5.00;4.50;;;;;;;15.88;53.52;96646.47;6052552;23;20168;-90
2022/05/22 06:22:49;;;;;;;6.37;5.50;;;;;;;17.46;53.16;96936.50;6055336;23;20224;-91
2022/05/22 06:25:17;;;;;;;5.00;4.47;;;;;;;20.00;53.33;97380.72;6084969;23;20203;-91
2022/05/22 06:27:44;;;;;;;4.93;3.90;;;;;;;18.33;53.65;97054.00;6015012;23;20179;-92
2022/05/22 06:30:14;;;;;;;6.20;3.87;;;;;;;17.99;53.52;97011.28;6060612;23;20161;-90
2022/05/22 06:32:41;;;;;;;5.40;3.50;;;;;;;18.27;53.52;97051.25;6039012;23;20164;-93
2022/05/22 06:35:09;;;;;;;4.90;3.73;;;;;;;20.41;53.58;97426.34;6065759;23;20227;-90
2022/05/22 06:37:36;;;;;;;4.17;3.77;;;;;;;19.02;53.43;97148.03;6068928;23;20176;-93
2022/05/22 06:40:04;;;;;;;3.50;3.20;;;;;;;18.14;53.36;97010.94;6094236;23;20184;-94
2022/05/22 06:42:38;;;;;;;4.03;3.63;;;;;;;18.30;53.05;97047.94;6045631;23;20191;-92
2022/05/22 06:45:19;;;;;;;4.13;3.70;;;;;;;17.25;53.39;96877.28;6023220;23;20200;-93
2022/05/22 06:47:45;;;;;;;4.60;3.70;;;;;;;19.72;53.48;97288.84;6053051;23;20157;-89
2022/05/22 06:50:20;;;;;;;3.80;3.43;;;;;;;18.04;53.40;97009.78;6061087;23;20176;-91
2022/05/22 06:52:47;;;;;;;3.70;3.40;;;;;;;16.95;53.38;96789.91;6061995;23;20153;-90
2022/05/22 06:55:14;;;;;;;3.40;3.10;;;;;;;21.13;53.43;97518.06;6013803;23;20207;-87
2022/05/22 06:57:41;;;;;;;3.63;3.33;;;;;;;17.77;53.27;96937.63;6016773;23;20161;-93
2022/05/22 07:00:12;;;;;;;4.33;3.67;;;;;;;19.54;53.00;97255.09;6057490;23;20602;-91
2022/05/22 07:02:41;;;;;;;3.83;3.53;;;;;;;18.99;53.27;97145.38;6015520;23;20196;-90
2022/05/22 07:05:09;;;;;;;3.30;3.00;;;;;;;16.71;53.14;96768.72;6060714;23;20251;-89
2022/05/22 07:07:36;;;;;;;3.93;3.53;;;;;;;20.51;53.44;97430.91;6041243;23;20251;-93
2022/05/22 07:10:03;;;;;;;3.50;3.20;;;;;;;17.35;53.25;96862.44;6045810;23;20164;-94
2022/05/22 07:25:59;;;;;;;3.33;3.03;;;;;;;18.05;53.36;96991.16;6114016;23;20179;-93
2022/05/22 07:28:26;;;;;;;3.43;3.13;;;;;;;16.80;53.31;96775.00;6065722;23;20216;-89
2022/05/22 07:31:02;;;;;;;4.37;3.03;;;;;;;17.00;52.75;96807.03;6072132;23;20168;-92
2022/05/22 07:33:28;;;;;;;3.53;3.13;;;;;;;20.02;52.97;97305.97;6044942;23;20172;-93
2022/05/22 07:35:56;;;;;;;3.73;3.00;;;;;;;16.74;52.68;96781.50;6070271;23;20161;-92
2022/05/22 07:38:24;;;;;;;3.40;2.90;;;;;;;18.46;52.66;97033.28;6047437;23;20156;-92
2022/05/22 07:40:51;;;;;;;5.90;3.20;;;;;;;20.66;52.76;97426.28;6071551;23;20153;-92
2022/05/22 07:43:18;;;;;;;3.83;3.10;;;;;;;18.99;53.15;97119.03;6048026;23;20168;-93
2022/05/22 07:45:45;;;;;;;3.30;3.00;;;;;;;16.98;53.18;96806.09;6072000;23;20160;-90
2022/05/22 07:48:13;;;;;;;3.63;3.13;;;;;;;17.72;53.40;96902.72;6048639;23;20161;-92
2022/05/22 08:14:51;;;;;;;2.90;2.53;;;;;;;20.44;53.29;97372.84;6117614;23;20214;-89
2022/05/22 08:17:21;;;;;;;3.27;2.93;;;;;;;17.59;53.30;96915.81;6072220;23;20160;-91
2022/05/22 08:35:40;;;;;;;4.07;2.87;;;;;;;20.52;53.37;97365.41;6113000;23;20287;-92
2022/05/22 09:19:09;;;;;;;2.70;2.50;;;;;;;18.14;53.84;96902.47;6112898;23;20210;-93
2022/05/22 09:21:54;;;;;;;2.50;2.30;;;;;;;21.15;53.84;97416.78;6095260;23;20191;-91
2022/05/22 09:25:12;;;;;;;2.83;2.60;;;;;;;21.14;53.83;97412.47;6120218;23;20202;-93
2022/05/22 09:28:03;;;;;;;2.60;2.40;;;;;;;21.16;53.96;97415.06;6103306;23;20207;-94
2022/05/22 09:30:56;;;;;;;2.67;2.47;;;;;;;21.15;53.96;97413.34;6120024;23;20168;-93
2022/05/22 09:33:47;;;;;;;3.73;2.30;;;;;;;21.15;54.02;97408.22;6095631;23;20160;-94
2022/05/22 09:36:33;;;;;;;2.60;2.40;;;;;;;21.15;54.09;97405.69;6076681;23;20164;-93
2022/05/22 09:39:42;;;;;;;2.80;2.50;;;;;;;17.70;53.75;96845.88;6121257;23;20170;-94
2022/05/22 09:42:40;;;;;;;2.70;2.50;;;;;;;21.14;54.09;97393.75;6096856;23;20287;-89
2022/05/22 09:45:20;;;;;;;3.03;2.40;;;;;;;21.15;54.04;97385.25;6097423;23;20180;-93
2022/05/22 09:47:52;;;;;;;2.90;2.40;;;;;;;21.13;54.02;97386.88;6121779;23;20156;-93
2022/05/22 09:50:41;;;;;;;3.43;2.50;;;;;;;21.14;54.07;97380.97;6113808;23;20191;-91
2022/05/22 09:53:20;;;;;;;2.70;2.10;;;;;;;19.31;54.08;97090.41;6113197;23;20183;-91
2022/05/22 09:55:50;;;;;;;2.97;2.50;;;;;;;17.75;54.30;96791.00;6071339;23;20171;-92
2022/05/22 09:58:37;;;;;;;2.80;2.53;;;;;;;21.14;54.23;97370.75;6071739;23;20227;-89
2022/05/22 10:01:06;;;;;;;3.87;2.70;;;;;;;21.14;54.48;97369.03;6059174;23;20219;-90
2022/05/22 10:03:49;;;;;;;3.13;2.23;;;;;;;21.16;54.57;97361.41;6087749;23;20182;-91
2022/05/22 10:06:28;;;;;;;2.60;2.40;;;;;;;21.15;54.28;97368.22;6090550;23;20164;-90
2022/05/22 10:09:04;;;;;;;3.50;2.63;;;;;;;21.17;54.14;97368.28;6118392;23;20191;-90
2022/05/22 10:11:39;;;;;;;2.50;2.30;;;;;;;21.16;54.35;97369.94;6118962;23;20191;-90
2022/05/22 10:14:09;;;;;;;2.20;2.00;;;;;;;19.20;54.09;97046.75;6096381;23;20191;-92
2022/05/22 10:16:36;;;;;;;14.87;2.40;;;;;;;21.17;54.52;97364.00;6072534;23;20188;-93
2022/05/22 10:19:09;;;;;;;4.70;2.50;;;;;;;17.49;54.34;96754.59;6090460;23;20214;-91
2022/05/22 10:22:03;;;;;;;3.07;2.23;;;;;;;16.01;54.29;96463.66;6069610;23;20175;-93
2022/05/22 10:24:51;;;;;;;6.97;3.00;;;;;;;21.21;54.62;97357.28;6117318;23;20206;-90
2022/05/22 10:27:33;;;;;;;8.30;2.47;;;;;;;21.21;54.76;97352.19;6113967;23;20164;-90
2022/05/22 10:30:28;;;;;;;7.93;2.33;;;;;;;18.06;54.45;96799.66;6088946;23;20148;-93
2022/05/22 10:33:09;;;;;;;4.73;2.40;;;;;;;16.78;54.28;96621.84;6069831;23;20167;-91
2022/05/22 10:35:38;;;;;;;6.80;2.47;;;;;;;21.24;54.47;97339.50;6091660;23;20195;-91
2022/05/22 10:38:20;;;;;;;9.93;2.37;;;;;;;18.10;54.46;96808.25;6120276;23;20172;-92
2022/05/22 10:43:47;;;;;;;8.80;2.23;;;;;;;20.10;53.99;97188.88;6093418;23;20199;-89
2022/05/22 10:46:14;;;;;;;7.97;2.30;;;;;;;20.32;54.11;97190.41;6059476;23;20576;-90
2022/05/22 10:48:54;;;;;;;6.80;3.00;;;;;;;19.28;54.22;97017.31;6063234;23;20164;-90
2022/05/22 10:51:26;;;;;;;6.83;2.60;;;;;;;19.87;54.29;97106.56;6064591;23;20164;-92
2022/05/22 10:53:59;;;;;;;3.70;2.10;;;;;;;20.35;54.60;97182.81;6068191;23;20203;-88
2022/05/22 10:56:33;;;;;;;3.13;2.30;;;;;;;19.32;54.38;97003.84;6065405;23;20191;-89
2022/05/22 10:59:08;;;;;;;5.43;2.40;;;;;;;19.28;54.34;97017.31;6090811;23;20159;-90
2022/05/22 11:01:39;;;;;;;3.20;2.23;;;;;;;19.90;54.58;97099.00;6042323;23;20254;-91
2022/05/22 11:04:13;;;;;;;4.97;2.37;;;;;;;20.11;54.36;97161.69;6039276;23;20227;-92
2022/05/22 11:06:57;;;;;;;6.63;2.20;;;;;;;19.00;54.49;96948.47;6040138;23;20164;-91
2022/05/22 11:09:25;;;;;;;3.27;2.60;;;;;;;21.24;54.58;97325.03;6061965;23;20207;-90
2022/05/22 11:12:05;;;;;;;3.70;2.33;;;;;;;18.14;54.30;96798.22;6062426;23;20188;-87
2022/05/22 11:14:35;;;;;;;4.20;2.57;;;;;;;17.96;54.30;96794.22;6062575;23;20199;-89
2022/05/22 11:17:08;;;;;;;3.17;2.47;;;;;;;21.24;54.39;97308.81;6063745;23;20152;-90
2022/05/22 11:19:38;;;;;;;3.20;2.53;;;;;;;19.57;54.46;97031.75;6086070;23;20187;-90
2022/05/22 11:22:42;;;;;;;5.77;2.43;;;;;;;21.25;54.45;97300.31;6040715;23;20199;-90
2022/05/22 11:25:31;;;;;;;7.53;2.60;;;;;;;19.57;54.68;97015.63;6112617;23;20210;-90
2022/05/22 11:31:03;;;;;;;3.73;2.50;;;;;;;21.26;54.79;97299.50;6112557;23;20206;-93
2022/05/22 11:33:40;;;;;;;4.53;2.40;;;;;;;16.95;54.49;96572.53;6076600;23;20183;-94
2022/05/22 11:36:38;;;;;;;3.33;2.70;;;;;;;21.26;54.60;97290.13;6060913;23;20189;-96
2022/05/22 11:39:18;;;;;;;7.40;2.87;;;;;;;20.70;54.81;97267.25;6040543;23;20164;-90
2022/05/22 11:41:48;;;;;;;4.73;2.53;;;;;;;17.38;54.41;96636.50;6014930;23;20208;-91
2022/05/22 11:44:37;;;;;;;4.87;2.80;;;;;;;20.98;54.40;97268.91;5989840;23;20161;-91
2022/05/22 11:47:17;;;;;;;5.37;2.93;;;;;;;21.27;54.22;97278.22;6002076;23;20232;-91
2022/05/22 11:50:08;;;;;;;5.33;2.83;;;;;;;21.26;54.53;97273.97;6025306;23;20165;-93
2022/05/22 11:53:03;;;;;;;5.57;2.70;;;;;;;21.24;54.41;97279.03;6021096;23;20165;-90
2022/05/22 11:55:57;;;;;;;7.17;3.03;;;;;;;21.24;54.42;97270.47;6020962;23;20197;-91
2022/05/22 11:58:45;;;;;;;6.00;3.00;;;;;;;21.25;54.49;97267.09;6026413;23;20161;-94
2022/05/22 12:01:23;;;;;;;3.77;2.80;;;;;;;21.25;54.50;97262.84;6016047;23;20181;-93
2022/05/22 12:04:26;;;;;;;6.77;3.13;;;;;;;21.25;54.56;97262.84;5991540;23;20173;-90
2022/05/22 12:07:12;;;;;;;4.27;2.83;;;;;;;21.25;54.30;97250.06;6010793;23;20173;-89
2022/05/22 12:10:02;;;;;;;8.10;3.30;;;;;;;21.26;54.39;97250.97;6013950;23;20172;-93
2022/05/22 12:12:31;;;;;;;9.03;3.40;;;;;;;20.68;54.47;97146.34;6014592;23;20196;-91
2022/05/22 12:15:21;;;;;;;5.77;2.73;;;;;;;21.06;54.64;97207.00;6013549;23;20707;-90
2022/05/22 12:18:29;;;;;;;4.33;3.00;;;;;;;21.24;54.48;97225.34;5990740;23;20598;-90
2022/05/22 12:21:11;;;;;;;5.37;3.30;;;;;;;20.71;54.63;97126.00;6039192;23;20229;-90
2022/05/22 12:23:43;;;;;;;5.57;3.00;;;;;;;21.24;54.67;97224.47;6016441;23;20221;-90
2022/05/22 12:26:13;;;;;;;4.93;2.90;;;;;;;20.37;54.27;97069.75;6039784;23;20204;-89
2022/05/22 12:28:50;;;;;;;8.03;3.57;;;;;;;21.23;54.65;97221.06;5968767;23;20179;-90
2022/05/22 12:31:44;;;;;;;3.73;2.87;;;;;;;21.24;54.50;97214.25;5991608;23;20161;-89
2022/05/22 12:34:18;;;;;;;7.10;2.90;;;;;;;21.23;54.13;97226.16;5991800;23;20240;-89
2022/05/22 12:36:46;;;;;;;9.73;3.67;;;;;;;19.55;53.91;96917.84;5992352;23;20232;-90
2022/05/22 12:39:14;;;;;;;4.80;2.87;;;;;;;16.65;53.61;96512.31;5992096;23;20188;-90
2022/05/22 12:42:06;;;;;;;11.23;3.90;;;;;;;21.23;54.04;97203.16;5969931;23;20209;-89
2022/05/22 12:44:33;;;;;;;11.67;3.63;;;;;;;18.92;53.90;96837.06;5992376;23;20177;-89
2022/05/22 12:47:00;;;;;;;6.93;3.57;;;;;;;13.23;53.68;95848.09;5993383;23;20185;-90
2022/05/22 12:49:31;;;;;;;11.13;3.77;;;;;;;16.51;54.04;96448.47;5992490;23;20177;-89
2022/05/22 12:52:05;;;;;;;10.10;4.03;;;;;;;21.24;54.56;97188.69;5969136;23;20236;-91
2022/05/22 12:54:37;;;;;;;11.80;4.20;;;;;;;16.75;54.20;96423.88;5992961;23;20165;-88
2022/05/22 12:57:10;;;;;;;6.13;3.50;;;;;;;19.65;54.33;96907.94;5991763;23;20668;-91
2022/05/22 12:59:36;;;;;;;6.93;3.73;;;;;;;18.06;54.31;96626.75;6038845;23;20173;-89
2022/05/22 13:02:03;;;;;;;10.10;4.37;;;;;;;16.80;54.57;96439.22;5989914;23;20197;-89
2022/05/22 13:04:50;;;;;;;10.37;4.27;;;;;;;17.79;54.58;96609.84;6013490;23;20192;-89
2022/05/22 13:07:22;;;;;;;10.73;4.00;;;;;;;17.42;54.43;96563.81;5968415;23;20244;-90
2022/05/22 13:09:51;;;;;;;7.13;3.80;;;;;;;16.72;54.34;96473.66;5989528;23;20248;-89
2022/05/22 13:12:30;;;;;;;10.17;3.83;;;;;;;21.27;54.39;97158.97;5990261;23;20199;-90
2022/05/22 13:15:03;;;;;;;6.77;3.63;;;;;;;21.29;54.44;97166.69;6037935;23;20200;-90
2022/05/22 13:17:36;;;;;;;9.43;3.97;;;;;;;12.49;54.18;95716.91;6038468;23;20221;-89
2022/05/22 13:20:06;;;;;;;6.97;4.20;;;;;;;19.99;54.46;96942.84;5990154;23;20486;-90
2022/05/22 13:22:36;;;;;;;7.50;3.40;;;;;;;21.30;54.26;97155.63;5989942;23;20201;-90
2022/05/22 13:25:06;;;;;;;8.23;3.87;;;;;;;17.89;54.26;96604.22;5989177;23;20201;-89
2022/05/22 13:27:39;;;;;;;7.53;3.77;;;;;;;19.03;54.55;96777.09;5990015;23;20184;-89
2022/05/22 13:30:21;;;;;;;9.97;3.97;;;;;;;14.92;54.57;96121.59;5967436;23;20181;-88
2022/05/22 13:32:56;;;;;;;6.33;3.80;;;;;;;21.32;54.41;97142.03;5967042;23;20164;-89
2022/05/22 13:35:29;;;;;;;6.60;3.70;;;;;;;19.65;54.41;96868.84;6012971;23;20601;-89
2022/05/22 13:37:55;;;;;;;7.03;3.47;;;;;;;15.47;54.34;96223.78;5967753;23;20203;-89
2022/05/22 13:40:36;;;;;;;7.03;3.90;;;;;;;21.33;54.62;97138.69;5990033;23;20189;-89
2022/05/22 13:43:09;;;;;;;6.10;3.57;;;;;;;21.34;54.84;97140.41;6013470;23;20232;-91
2022/05/22 13:46:05;;;;;;;10.90;3.60;;;;;;;21.33;54.36;97120.78;6013865;23;20205;-89
2022/05/22 13:48:54;;;;;;;9.80;4.00;;;;;;;16.61;54.40;96399.75;6013616;23;20214;-89
2022/05/22 13:54:28;;;;;;;6.93;3.83;;;;;;;21.32;54.48;97124.16;6038702;23;20233;-89
2022/05/22 13:56:56;;;;;;;7.73;3.60;;;;;;;13.24;54.08;95738.00;6037109;23;20181;-90
2022/05/22 13:59:27;;;;;;;6.07;3.43;;;;;;;18.27;54.00;96688.41;5989941;23;20249;-89
2022/05/22 14:01:54;;;;;;;5.27;3.33;;;;;;;14.99;54.04;96088.97;5989893;23;20176;-89
2022/05/22 14:04:21;;;;;;;6.40;3.70;;;;;;;16.58;54.04;96320.19;5989650;23;20229;-89
2022/05/22 14:06:51;;;;;;;7.17;3.27;;;;;;;18.95;54.20;96748.88;5966499;23;20185;-89
2022/05/22 14:09:23;;;;;;;7.33;3.43;;;;;;;15.53;54.28;96196.13;6013078;23;20185;-91
2022/05/22 14:11:52;;;;;;;5.43;3.33;;;;;;;15.73;54.13;96221.28;5990889;23;20236;-90
2022/05/22 14:14:21;;;;;;;6.47;3.60;;;;;;;15.47;54.15;96195.94;5989238;23;20219;-89
2022/05/22 14:16:57;;;;;;;6.40;3.70;;;;;;;15.11;54.71;96084.28;5967199;23;20268;-90
2022/05/22 14:19:31;;;;;;;6.73;3.50;;;;;;;16.74;54.17;96342.66;5990165;23;20165;-90
2022/05/22 14:22:13;;;;;;;6.80;3.50;;;;;;;19.16;54.48;96734.16;5989438;23;20180;-90